createdAt,value
2018-05-26T00:03:05.243Z,13.50
2018-05-26T00:07:39.968Z,13.55
2018-05-26T00:12:14.022Z,15.50
2018-05-26T00:16:47.313Z,13.40
2018-05-26T00:21:20.743Z,13.77
2018-05-26T00:25:54.100Z,14.87
2018-05-26T00:30:27.451Z,17.27
2018-05-26T00:35:01.410Z,14.30
2018-05-26T00:39:34.661Z,13.35
2018-05-26T00:44:07.884Z,13.90
2018-05-26T00:48:41.866Z,13.88
2018-05-26T00:53:15.061Z,14.32
2018-05-26T00:57:48.282Z,16.67
2018-05-26T01:02:21.470Z,15.15
2018-05-26T01:06:54.869Z,17.08
2018-05-26T01:11:28.057Z,14.43
2018-05-26T01:16:02.040Z,14.30
2018-05-26T01:20:35.241Z,13.55
2018-05-26T01:25:08.578Z,15.32
2018-05-26T01:29:41.803Z,19.08
2018-05-26T01:34:15.763Z,15.65
2018-05-26T01:38:48.972Z,16.00
2018-05-26T01:43:22.166Z,15.52
2018-05-26T01:47:55.365Z,14.63
2018-05-26T01:52:28.646Z,15.07
2018-05-26T01:57:02.577Z,15.25
2018-05-26T02:01:36.537Z,15.10
2018-05-26T02:06:09.754Z,17.50
2018-05-26T02:10:42.946Z,16.87
2018-05-26T02:15:16.162Z,19.95
2018-05-26T02:19:49.377Z,16.25
2018-05-26T02:24:22.569Z,18.45
2018-05-26T02:28:55.785Z,15.57
2018-05-26T02:33:29.040Z,18.17
2018-05-26T02:38:02.225Z,16.65
2018-05-26T02:42:35.427Z,14.98
2018-05-26T02:47:08.597Z,15.10
2018-05-26T02:51:41.785Z,18.30
2018-05-26T02:56:15.006Z,18.27
2018-05-26T03:00:48.250Z,15.88
2018-05-26T03:05:27.154Z,15.45
2018-05-26T03:10:06.394Z,17.30
2018-05-26T03:14:45.538Z,15.68
2018-05-26T03:19:18.759Z,16.20
2018-05-26T03:23:51.950Z,15.98
2018-05-26T03:28:25.185Z,15.32
2018-05-26T03:32:58.414Z,17.60
2018-05-26T03:37:31.634Z,16.02
2018-05-26T03:42:04.871Z,16.98
2018-05-26T03:46:38.862Z,17.55
2018-05-26T03:51:12.270Z,19.50
2018-05-26T04:00:54.210Z,18.20
2018-05-26T04:05:27.425Z,16.87
2018-05-26T04:10:01.442Z,15.53
2018-05-26T04:14:34.610Z,15.90
2018-05-26T04:19:07.802Z,16.20
2018-05-26T04:23:41.026Z,16.98
2018-05-26T04:28:14.260Z,17.37
2018-05-26T04:32:47.453Z,18.40
2018-05-26T04:37:20.645Z,15.98
2018-05-26T04:41:53.849Z,16.25
2018-05-26T04:46:27.222Z,16.92
2018-05-26T04:51:00.458Z,17.73
2018-05-26T04:55:33.625Z,18.27
2018-05-26T05:00:07.604Z,17.65
2018-05-26T05:04:40.802Z,18.40
2018-05-26T05:09:14.676Z,19.52
2018-05-26T05:13:47.922Z,17.00
2018-05-26T05:18:21.105Z,15.75
2018-05-26T05:22:55.232Z,16.58
2018-05-26T05:27:29.190Z,21.40
2018-05-26T05:32:02.379Z,18.58
2018-05-26T05:36:36.363Z,16.75
2018-05-26T05:41:09.606Z,17.20
2018-05-26T05:45:42.932Z,18.20
2018-05-26T05:50:16.212Z,17.75
2018-05-26T05:54:50.145Z,17.17
2018-05-26T05:59:24.102Z,17.83
2018-05-26T06:03:57.346Z,18.65
2018-05-26T06:08:31.307Z,18.50
2018-05-26T06:13:05.286Z,20.40
2018-05-26T06:17:38.478Z,25.50
2018-05-26T06:22:11.713Z,18.73
2018-05-26T06:26:44.915Z,16.85
2018-05-26T06:31:18.371Z,15.82
2018-05-26T06:35:51.583Z,14.98
2018-05-26T06:40:24.816Z,16.00
2018-05-26T06:44:58.072Z,13.15
2018-05-26T06:49:32.104Z,11.60
2018-05-26T06:54:06.074Z,11.70
2018-05-26T06:58:39.242Z,10.23
2018-05-26T07:03:13.273Z,11.93
2018-05-26T07:07:46.494Z,9.88
2018-05-26T07:12:20.004Z,8.80
2018-05-26T07:16:53.520Z,9.32
2018-05-26T07:21:26.737Z,8.93
2018-05-26T07:25:59.923Z,9.60
2018-05-26T07:30:33.898Z,10.05
2018-05-26T07:35:07.087Z,8.93
2018-05-26T07:39:40.293Z,9.00
2018-05-26T07:44:13.568Z,8.25
2018-05-26T07:48:47.751Z,7.95
2018-05-26T07:53:20.931Z,7.15
2018-05-26T07:57:54.248Z,10.27
2018-05-26T08:02:28.919Z,8.80
2018-05-26T08:07:02.133Z,8.50
2018-05-26T08:11:35.318Z,8.10
2018-05-26T08:16:08.514Z,7.18
2018-05-26T08:20:41.697Z,6.78
2018-05-26T08:25:14.906Z,6.97
2018-05-26T08:29:48.115Z,7.15
2018-05-26T08:34:21.332Z,8.18
2018-05-26T08:38:54.578Z,6.95
2018-05-26T08:43:28.518Z,6.78
2018-05-26T08:48:02.470Z,6.30
2018-05-26T08:52:35.626Z,7.12
2018-05-26T08:57:08.811Z,6.35
2018-05-26T09:01:42.024Z,6.37
2018-05-26T09:06:15.211Z,5.85
2018-05-26T09:10:48.482Z,5.30
2018-05-26T09:15:22.434Z,6.00
2018-05-26T09:19:55.649Z,5.97
2018-05-26T09:24:28.862Z,4.82
2018-05-26T09:29:02.075Z,6.07
2018-05-26T09:33:35.286Z,6.65
2018-05-26T09:38:08.482Z,5.57
2018-05-26T09:42:41.698Z,4.93
2018-05-26T09:47:15.801Z,5.35
2018-05-26T09:51:49.294Z,5.10
2018-05-26T09:56:22.583Z,4.60
2018-05-26T10:00:55.914Z,4.12
2018-05-26T10:05:29.207Z,5.20
2018-05-26T10:10:03.150Z,4.00
2018-05-26T10:14:36.390Z,4.65
2018-05-26T10:19:09.596Z,4.10
2018-05-26T10:23:42.777Z,4.15
2018-05-26T10:28:16.002Z,5.15
2018-05-26T10:32:49.190Z,4.10
2018-05-26T10:37:22.374Z,4.03
2018-05-26T10:41:56.358Z,3.78
2018-05-26T10:46:29.573Z,4.10
2018-05-26T10:51:02.773Z,3.60
2018-05-26T10:55:35.933Z,4.20
2018-05-26T11:00:09.159Z,3.25
2018-05-26T11:04:42.338Z,4.32
2018-05-26T11:09:16.655Z,3.67
2018-05-26T11:13:50.627Z,3.30
2018-05-26T11:18:23.810Z,3.30
2018-05-26T11:22:57.017Z,3.45
2018-05-26T11:27:30.238Z,3.30
2018-05-26T11:32:03.445Z,3.85
2018-05-26T11:36:36.678Z,3.70
2018-05-26T11:41:09.870Z,3.53
2018-05-26T11:45:43.052Z,3.12
2018-05-26T11:50:16.235Z,4.82
2018-05-26T11:54:49.478Z,3.40
2018-05-26T11:59:22.781Z,3.35
2018-05-26T12:03:56.022Z,3.25
2018-05-26T12:08:29.206Z,3.40
2018-05-26T12:13:02.407Z,3.22
2018-05-26T12:17:35.909Z,2.90
2018-05-26T12:22:09.418Z,3.72
2018-05-26T12:26:44.129Z,3.35
2018-05-26T12:31:18.103Z,3.30
2018-05-26T12:35:51.295Z,3.65
2018-05-26T12:40:24.476Z,3.60
2018-05-26T12:44:58.426Z,3.50
2018-05-26T12:49:31.635Z,3.35
2018-05-26T12:54:04.837Z,3.15
2018-05-26T12:58:38.026Z,3.00
2018-05-26T13:03:12.057Z,3.60
2018-05-26T13:07:45.987Z,3.75
2018-05-26T13:12:19.282Z,3.22
2018-05-26T13:16:53.334Z,3.65
2018-05-26T13:21:26.533Z,3.80
2018-05-26T13:25:59.751Z,3.92
2018-05-26T13:30:33.518Z,3.75
2018-05-26T13:35:06.726Z,3.83
2018-05-26T13:39:40.231Z,3.85
2018-05-26T13:44:13.451Z,3.50
2018-05-26T13:48:48.423Z,4.20
2018-05-26T13:53:22.476Z,4.20
2018-05-26T13:57:55.573Z,4.80
2018-05-26T14:02:28.759Z,4.35
2018-05-26T14:07:02.762Z,4.18
2018-05-26T14:11:35.985Z,3.80
2018-05-26T14:16:09.910Z,4.12
2018-05-26T14:20:43.896Z,4.20
2018-05-26T14:25:17.083Z,3.97
2018-05-26T14:29:50.277Z,3.30
2018-05-26T14:34:23.594Z,3.17
2018-05-26T14:38:56.786Z,3.40
2018-05-26T14:43:30.070Z,3.33
2018-05-26T14:48:04.024Z,3.05
2018-05-26T14:52:37.245Z,3.50
2018-05-26T14:57:10.463Z,3.28
2018-05-26T15:01:43.642Z,3.47
2018-05-26T15:06:16.854Z,3.97
2018-05-26T15:10:50.042Z,3.28
2018-05-26T15:15:23.270Z,3.50
2018-05-26T15:19:56.459Z,3.20
2018-05-26T15:24:29.686Z,5.10
2018-05-26T15:29:02.954Z,4.30
2018-05-26T15:33:36.946Z,3.90
2018-05-26T15:38:10.219Z,3.33
2018-05-26T15:42:43.428Z,3.50
2018-05-26T15:47:16.622Z,3.85
2018-05-26T15:51:49.811Z,3.22
2018-05-26T15:56:23.762Z,5.93
2018-05-26T16:00:57.050Z,3.10
2018-05-26T16:05:31.094Z,3.65
2018-05-26T16:10:04.329Z,3.40
2018-05-26T16:14:37.542Z,3.50
2018-05-26T16:19:10.720Z,3.85
2018-05-26T16:23:43.902Z,3.65
2018-05-26T16:28:17.855Z,4.22
2018-05-26T16:32:51.031Z,3.60
2018-05-26T16:37:25.017Z,3.30
2018-05-26T16:41:58.200Z,4.22
2018-05-26T16:46:31.461Z,5.35
2018-05-26T16:51:05.450Z,7.93
2018-05-26T16:55:38.674Z,4.70
2018-05-26T17:00:11.838Z,5.70
2018-05-26T17:04:45.018Z,5.12
2018-05-26T17:09:18.314Z,10.70
2018-05-26T17:13:51.550Z,6.75
2018-05-26T17:18:24.750Z,20.60
2018-05-26T17:22:58.040Z,4.95
2018-05-26T17:27:31.993Z,5.45
2018-05-26T17:32:05.207Z,6.35
2018-05-26T17:36:38.478Z,6.62
2018-05-26T17:41:11.757Z,4.80
2018-05-26T17:45:44.992Z,4.95
2018-05-26T17:50:18.967Z,5.15
2018-05-26T17:54:52.326Z,5.32
2018-05-26T17:59:26.277Z,12.80
2018-05-26T18:03:59.474Z,10.90
2018-05-26T18:08:32.678Z,8.77
2018-05-26T18:13:05.864Z,6.07
2018-05-26T18:17:39.079Z,6.55
2018-05-26T18:22:13.033Z,6.53
2018-05-26T18:26:46.343Z,8.18
2018-05-26T18:31:19.510Z,13.65
2018-05-26T18:35:52.731Z,8.10
2018-05-26T18:40:26.793Z,10.60
2018-05-26T18:45:00.047Z,18.30
2018-05-26T18:49:33.414Z,11.70
2018-05-26T18:54:06.718Z,8.15
2018-05-26T18:58:39.903Z,8.90
2018-05-26T19:03:13.114Z,11.68
2018-05-26T19:07:46.324Z,16.27
2018-05-26T19:12:19.574Z,12.23
2018-05-26T19:16:53.529Z,10.73
2018-05-26T19:21:27.555Z,8.30
2018-05-26T19:26:02.264Z,9.70
2018-05-26T19:30:35.450Z,7.87
2018-05-26T19:35:08.682Z,9.13
2018-05-26T19:39:43.289Z,13.52
2018-05-26T19:44:16.550Z,8.30
2018-05-26T19:48:50.505Z,7.07
2018-05-26T19:53:23.885Z,7.90
2018-05-26T19:57:57.051Z,8.73
2018-05-26T20:02:30.594Z,9.60
2018-05-26T20:07:03.918Z,10.38
2018-05-26T20:11:37.644Z,11.10
2018-05-26T20:16:11.878Z,8.45
2018-05-26T20:20:45.327Z,7.65
2018-05-26T20:25:18.547Z,8.27
2018-05-26T20:29:51.759Z,8.10
2018-05-26T20:34:25.336Z,8.80
2018-05-26T20:38:58.598Z,6.85
2018-05-26T20:43:33.035Z,7.37
2018-05-26T20:48:06.226Z,7.15
2018-05-26T20:52:39.437Z,7.45
2018-05-26T20:57:12.593Z,8.73
2018-05-26T21:01:45.791Z,8.07
2018-05-26T21:06:19.950Z,9.55
2018-05-26T21:10:53.139Z,7.72
2018-05-26T21:15:26.326Z,8.93
2018-05-26T21:20:00.296Z,9.23
2018-05-26T21:24:33.540Z,8.88
2018-05-26T21:29:06.694Z,9.00
2018-05-26T21:33:39.914Z,8.90
2018-05-26T21:38:13.094Z,9.93
2018-05-26T21:42:46.323Z,22.23
2018-05-26T21:47:19.491Z,23.52
2018-05-26T21:51:53.446Z,23.15
2018-05-26T21:56:26.678Z,16.98
2018-05-26T22:00:59.878Z,14.73
2018-05-26T22:05:33.043Z,11.35
2018-05-26T22:10:06.230Z,10.88
2018-05-26T22:14:40.349Z,9.10
2018-05-26T22:19:13.566Z,8.75
2018-05-26T22:23:47.569Z,10.48
2018-05-26T22:28:20.762Z,9.07
2018-05-26T22:32:53.927Z,9.10
2018-05-26T22:37:27.160Z,11.02
2018-05-26T22:42:00.363Z,14.87
2018-05-26T22:46:33.599Z,11.25
2018-05-26T22:51:06.787Z,9.52
2018-05-26T22:55:40.031Z,10.80
2018-05-26T23:00:13.231Z,9.85
2018-05-26T23:04:46.502Z,9.90
2018-05-26T23:09:19.693Z,20.48
2018-05-26T23:13:52.890Z,34.53
2018-05-26T23:18:26.082Z,28.17
2018-05-26T23:22:59.302Z,28.70
2018-05-26T23:27:32.499Z,16.73
2018-05-26T23:32:06.486Z,15.27
2018-05-26T23:36:40.498Z,14.50
2018-05-26T23:41:13.671Z,16.05
2018-05-26T23:45:46.911Z,13.68
2018-05-26T23:50:20.083Z,17.08
2018-05-26T23:54:53.307Z,13.05
2018-05-26T23:59:26.610Z,11.38
